首页
METAR-TAF:

METAR-TAF

机场 :

Statesboro-Bulloch County Airport

Statesboro, 喬治亞, 美国

纬度: 32-28-59N, 经度: 081-44-14W, 海拔: 57米

当前天气观测

该预报发布于26分钟前的06:55 UTC
风速5节,风向
温度 9°C
湿度 100%
气压 1019 hPa
能見度: 1.6公里
阴天层高于300英尺
轻雾

METAR: KTBR 170655Z AUTO 01005KT 1SM BR OVC003 09/09 A3009 RMK AO2 T00930087

时间: 02:21 (07:21 UTC)


TAF: 丢失

超过4000个机场的气象观测和天气预报(METAR&TAF报告)。

可查询的气象台以黄色和红色小点在地图上表示。

将鼠标移到小点上方,可查看气象台名称。

然后点击查看天气观测和预报。

如需切换地图:点击带黑十字的绿色按钮放大地图;点击带横线的绿色按钮缩小地图;或者点击绿色箭头查看邻近地区的地图。


METAR-TAF: